Carlow, Ireland
Current Conditions -  °F | °C
As of 10:00 AM on Wednesday 26 Nov 2014 (Local Time) from EIME Reporting Station
Moderate Fog Moderate Fog  
Wind Chill: 30°   Ceiling: Unl
Heat Index: 34°   Visibility: 0.12mi
Dew Point: 34°   Wind: 5mph
Humidity: 100%   Direction: 290°WNW
Pressure: 29.94"   Gusts: NA
Location:  52.84°N, 6.92°W
Report Text: EIME 261000Z 29004KT 0200 FG FEW001 SCT005 01/01 Q1014
Loading
Personal Weather Stations






























Interactive Weather Map New forecast layout! Learn more

10-Day Weather Forecast

Advertisements
Track Severe Weather on mobile